Time;durP1;ratioP1;P1;durP2;ratioP2;P2;SDS_P1;SDS_P2;PMS_P1;PMS_P2;Temp;Humidity;BMP_temperature;BMP_pressure;BME280_temperature;BME280_humidity;BME280_pressure;Samples;Min_cycle;Max_cycle;Signal;HPM_P1;HPM_P2
2022/10/14 00:01:50;;;;;;;9.80;6.07;;;;;;;12.94;95.07;100771.00;5012156;28;20061;-85
2022/10/14 00:04:53;;;;;;;9.18;5.25;;;;;;;12.95;95.17;100767.41;5001032;28;20080;-85
2022/10/14 00:07:56;;;;;;;6.32;5.00;;;;;;;12.98;95.00;100770.72;5013387;28;20041;-85
2022/10/14 00:11:13;;;;;;;6.93;5.80;;;;;;;12.98;94.97;100762.84;5012841;28;20117;-84
2022/10/14 00:14:19;;;;;;;9.02;5.75;;;;;;;12.98;94.90;100762.00;5012898;28;20074;-84
2022/10/14 00:17:25;;;;;;;5.72;4.65;;;;;;;12.98;94.86;100762.00;4973234;28;20049;-83
2022/10/14 00:20:29;;;;;;;6.43;4.80;;;;;;;12.98;94.63;100756.75;4974209;28;20089;-84
2022/10/14 00:23:32;;;;;;;7.40;5.00;;;;;;;12.95;94.59;100762.16;4973801;28;20144;-83
2022/10/14 00:26:38;;;;;;;7.18;5.03;;;;;;;12.98;94.59;100759.38;4974297;28;20050;-83
2022/10/14 00:29:41;;;;;;;7.97;4.50;;;;;;;12.98;94.64;100767.25;4974089;28;20129;-83
2022/10/14 00:32:45;;;;;;;9.57;5.65;;;;;;;12.98;94.56;100757.59;4974142;28;20045;-83
2022/10/14 00:35:57;;;;;;;7.60;4.75;;;;;;;12.96;94.69;100758.63;4973581;28;20082;-84
2022/10/14 00:39:09;;;;;;;7.57;4.80;;;;;;;12.98;94.38;100764.63;4973864;28;20053;-84
2022/10/14 00:42:14;;;;;;;8.30;4.35;;;;;;;12.92;95.21;100757.09;4973649;28;20181;-84
2022/10/14 00:45:23;;;;;;;7.35;4.75;;;;;;;12.98;94.62;100756.75;4973218;28;20049;-84
2022/10/14 00:48:28;;;;;;;5.75;4.90;;;;;;;12.93;94.92;100748.31;4972991;28;20580;-84
2022/10/14 00:51:42;;;;;;;6.43;4.35;;;;;;;12.93;94.81;100750.94;4973353;28;20070;-84
2022/10/14 00:55:09;;;;;;;6.35;4.32;;;;;;;13.03;94.44;100752.09;4972712;28;20041;-84
2022/10/14 00:58:15;;;;;;;8.80;4.28;;;;;;;13.08;93.54;100743.91;4973861;28;20416;-84
2022/10/14 01:01:21;;;;;;;6.32;4.38;;;;;;;13.07;93.42;100745.72;4972948;28;20064;-83
2022/10/14 01:04:25;;;;;;;7.47;4.18;;;;;;;13.03;93.69;100744.22;4972467;28;20528;-83
2022/10/14 01:07:37;;;;;;;10.10;4.60;;;;;;;12.82;95.10;100745.47;4972447;28;20579;-83
2022/10/14 01:11:12;;;;;;;7.15;4.57;;;;;;;12.71;95.53;100744.31;4973584;28;20065;-83
2022/10/14 01:14:18;;;;;;;12.43;4.82;;;;;;;12.76;95.32;100737.03;4973540;28;20177;-83
2022/10/14 01:17:39;;;;;;;7.22;4.72;;;;;;;12.79;95.43;100736.84;4972412;28;20054;-82
2022/10/14 01:21:10;;;;;;;9.07;5.13;;;;;;;12.65;96.54;100743.81;4973363;28;20048;-81
2022/10/14 01:24:32;;;;;;;8.55;5.53;;;;;;;12.67;96.55;100732.31;4973307;28;20123;-82
2022/10/14 01:27:54;;;;;;;9.20;5.32;;;;;;;12.68;96.57;100733.97;4973169;28;20054;-82
2022/10/14 01:31:05;;;;;;;7.70;5.18;;;;;;;12.79;95.94;100736.84;4973049;28;20101;-82
2022/10/14 01:34:15;;;;;;;8.52;5.63;;;;;;;12.84;95.35;100726.06;4973009;28;20061;-82
2022/10/14 01:37:23;;;;;;;8.75;6.25;;;;;;;12.72;96.46;100726.78;4975550;28;20496;-82
2022/10/14 01:40:38;;;;;;;10.27;7.45;;;;;;;12.77;96.16;100722.97;4969509;28;20078;-82
2022/10/14 01:43:46;;;;;;;10.98;6.53;;;;;;;12.80;95.74;100716.69;4972225;28;20053;-82
2022/10/14 01:46:54;;;;;;;14.05;5.53;;;;;;;12.82;95.44;100716.59;4972381;28;20050;-84
2022/10/14 01:50:03;;;;;;;12.60;4.72;;;;;;;12.82;95.34;100708.72;4972119;28;20169;-84
2022/10/14 01:53:16;;;;;;;14.45;5.32;;;;;;;12.84;94.85;100707.69;4972116;28;20049;-84
2022/10/14 01:56:20;;;;;;;8.07;5.13;;;;;;;12.73;95.27;100700.47;4972227;28;20101;-84
2022/10/14 01:59:27;;;;;;;9.07;4.68;;;;;;;12.79;94.64;100704.50;4971897;28;20129;-85
2022/10/14 02:02:37;;;;;;;7.45;4.47;;;;;;;12.69;95.00;100693.69;4971817;28;20097;-84
2022/10/14 02:05:59;;;;;;;9.73;5.45;;;;;;;12.66;95.56;100693.88;4972035;28;20053;-84
2022/10/14 02:09:24;;;;;;;8.13;4.30;;;;;;;12.76;95.02;100681.91;4971748;28;20055;-84
2022/10/14 02:12:44;;;;;;;10.73;4.80;;;;;;;12.74;94.67;100680.31;4972794;28;20069;-84
2022/10/14 02:16:13;;;;;;;8.32;4.40;;;;;;;12.79;94.37;100676.50;4994622;28;20092;-84
2022/10/14 02:19:36;;;;;;;12.20;5.05;;;;;;;12.87;93.94;100669.94;4999834;28;20084;-84
2022/10/14 02:22:46;;;;;;;10.85;5.07;;;;;;;12.85;93.79;100666.56;4999579;28;20463;-84
2022/10/14 02:26:01;;;;;;;9.93;5.50;;;;;;;12.70;94.91;100661.28;5001172;28;20419;-85
2022/10/14 02:29:05;;;;;;;12.15;5.22;;;;;;;12.78;94.52;100653.78;4999335;28;20037;-85
2022/10/14 02:32:13;;;;;;;11.32;5.97;;;;;;;12.84;94.10;100651.75;4988632;28;20406;-86
2022/10/14 02:35:21;;;;;;;17.55;5.70;;;;;;;12.84;93.61;100643.88;4998776;28;20128;-86
2022/10/14 02:38:25;;;;;;;10.68;5.20;;;;;;;12.72;94.25;100645.44;5011174;28;20084;-86
2022/10/14 02:41:35;;;;;;;8.35;5.50;;;;;;;12.72;94.50;100646.28;4988660;28;20565;-85
2022/10/14 02:44:52;;;;;;;8.38;4.78;;;;;;;12.74;93.83;100649.66;4999144;28;20096;-86
2022/10/14 02:47:55;;;;;;;6.85;4.95;;;;;;;12.69;94.40;100645.63;4999470;28;20108;-85
2022/10/14 02:50:58;;;;;;;12.52;6.00;;;;;;;12.65;95.12;100644.97;4999341;28;20049;-85
2022/10/14 02:54:02;;;;;;;13.68;5.38;;;;;;;12.70;94.73;100637.69;4988193;28;20053;-85
2022/10/14 02:57:05;;;;;;;7.38;3.80;;;;;;;12.75;94.46;100638.22;5011081;28;20125;-86
2022/10/14 03:00:10;;;;;;;10.20;4.82;;;;;;;12.69;94.60;100633.34;4999575;28;20511;-86
2022/10/14 03:03:13;;;;;;;7.05;5.28;;;;;;;12.63;94.84;100620.59;4999255;28;20167;-83
2022/10/14 03:06:16;;;;;;;8.60;4.25;;;;;;;12.53;95.35;100622.91;5002726;28;20040;-83
2022/10/14 03:09:22;;;;;;;9.20;4.13;;;;;;;12.62;95.30;100624.16;5002690;28;20077;-83
2022/10/14 03:12:26;;;;;;;5.38;3.15;;;;;;;12.62;94.72;100620.69;5002310;28;20446;-84
2022/10/14 03:15:32;;;;;;;9.63;4.22;;;;;;;12.63;94.37;100625.00;5001672;28;20475;-84
2022/10/14 03:18:36;;;;;;;7.00;4.68;;;;;;;12.63;94.40;100625.84;5002794;28;20057;-84
2022/10/14 03:21:48;;;;;;;11.65;4.30;;;;;;;12.64;94.20;100611.81;5002490;28;20080;-84
2022/10/14 03:24:55;;;;;;;9.05;4.25;;;;;;;12.63;94.04;100615.34;5003424;28;20064;-85
2022/10/14 03:28:19;;;;;;;8.45;4.13;;;;;;;12.70;93.56;100614.06;5003920;28;20576;-85
2022/10/14 03:31:42;;;;;;;10.50;4.03;;;;;;;12.60;94.50;100620.78;5014996;28;20041;-85
2022/10/14 03:35:07;;;;;;;9.13;3.65;;;;;;;12.47;94.89;100609.31;5003199;28;20650;-81
2022/10/14 03:38:12;;;;;;;11.77;4.47;;;;;;;12.52;94.97;100615.16;5002035;28;20044;-86
2022/10/14 03:41:17;;;;;;;10.15;4.13;;;;;;;12.56;94.43;100620.09;5001976;28;20092;-84
2022/10/14 03:44:21;;;;;;;14.18;4.45;;;;;;;12.59;93.70;100620.88;5001830;28;20068;-85
2022/10/14 03:47:57;;;;;;;7.85;4.57;;;;;;;12.45;94.74;100611.22;5013681;28;20485;-83
2022/10/14 03:51:00;;;;;;;12.82;4.93;;;;;;;12.50;94.41;100619.63;5013977;28;20099;-82
2022/10/14 03:54:08;;;;;;;7.50;4.65;;;;;;;12.51;94.26;100614.31;4990929;28;20188;-85
2022/10/14 03:57:12;;;;;;;11.60;5.13;;;;;;;12.53;93.35;100614.22;5001761;28;20064;-87
2022/10/14 04:00:22;;;;;;;7.75;4.38;;;;;;;12.60;93.34;100615.53;5001349;28;20623;-85
2022/10/14 04:03:35;;;;;;;9.18;4.10;;;;;;;12.56;93.16;100614.03;5001680;28;20049;-83
2022/10/14 04:06:41;;;;;;;11.95;4.45;;;;;;;12.61;92.96;100612.00;5001554;28;20121;-82
2022/10/14 04:09:47;;;;;;;7.80;4.60;;;;;;;12.58;93.02;100612.16;5001587;28;20064;-84
2022/10/14 04:12:54;;;;;;;7.63;4.60;;;;;;;12.56;93.21;100619.28;5001547;28;20064;-82
2022/10/14 04:16:07;;;;;;;8.07;4.75;;;;;;;12.51;93.58;100616.09;5000767;28;20057;-81
2022/10/14 04:19:15;;;;;;;11.50;6.88;;;;;;;12.37;94.36;100618.66;5000062;28;20100;-84
2022/10/14 04:22:21;;;;;;;14.15;8.48;;;;;;;12.16;95.91;100605.88;5001450;28;20088;-82
2022/10/14 04:29:53;;;;;;;12.25;5.80;;;;;;;12.30;95.99;100591.97;5000420;28;20037;-86
2022/10/14 04:33:05;;;;;;;7.00;4.15;;;;;;;12.44;94.87;100588.50;5001747;28;20052;-85
2022/10/14 04:36:10;;;;;;;9.52;4.35;;;;;;;12.58;94.07;100599.06;5000577;28;20432;-82
2022/10/14 04:39:16;;;;;;;9.70;4.63;;;;;;;12.53;93.91;100587.97;4999827;28;20088;-83
2022/10/14 04:42:26;;;;;;;10.70;5.50;;;;;;;12.50;94.23;100583.75;5001057;28;20344;-80
2022/10/14 04:46:25;;;;;;;9.02;6.00;;;;;;;12.63;93.43;100583.88;4999810;28;20057;-83
2022/10/14 04:49:30;;;;;;;11.02;5.53;;;;;;;12.57;93.55;100587.72;5011697;28;20081;-83
2022/10/14 04:52:43;;;;;;;8.38;4.60;;;;;;;12.60;93.62;100591.06;5001155;28;20053;-82
2022/10/14 04:55:50;;;;;;;10.82;6.20;;;;;;;12.56;93.54;100590.41;5000909;28;20064;-82
2022/10/14 04:58:53;;;;;;;11.60;6.28;;;;;;;12.56;93.80;100588.63;5000543;28;20103;-83
2022/10/14 05:01:59;;;;;;;10.57;6.50;;;;;;;12.57;93.91;100589.47;5001084;28;20128;-82
2022/10/14 05:05:13;;;;;;;13.17;5.90;;;;;;;12.50;94.18;100590.78;5012881;28;20106;-83
2022/10/14 05:09:04;;;;;;;7.70;5.07;;;;;;;12.54;93.97;100584.44;5000515;28;20048;-83
2022/10/14 05:12:27;;;;;;;8.68;5.00;;;;;;;12.53;93.99;100583.56;5001390;28;20052;-81
2022/10/14 05:15:35;;;;;;;11.45;6.40;;;;;;;12.49;94.84;100576.00;5000307;28;20096;-83
2022/10/14 05:18:47;;;;;;;6.82;5.25;;;;;;;12.52;94.92;100575.81;5000334;28;20053;-82
2022/10/14 05:21:51;;;;;;;8.65;4.80;;;;;;;12.61;94.36;100575.25;5000417;28;20076;-84
2022/10/14 05:25:02;;;;;;;12.25;4.82;;;;;;;12.66;93.78;100567.94;4989927;28;20112;-83
2022/10/14 05:28:08;;;;;;;11.52;5.93;;;;;;;12.60;94.00;100568.31;4999020;28;20049;-83
2022/10/14 05:31:16;;;;;;;11.20;8.00;;;;;;;12.35;95.61;100563.72;5000708;28;20104;-83
2022/10/14 05:34:27;;;;;;;12.43;7.88;;;;;;;12.38;95.64;100563.53;5000238;28;20099;-81
2022/10/14 05:37:32;;;;;;;13.77;7.68;;;;;;;12.50;94.94;100564.56;5000196;28;20122;-81
2022/10/14 05:40:36;;;;;;;10.10;6.72;;;;;;;12.61;94.22;100559.53;5000588;28;20119;-82
2022/10/14 05:43:40;;;;;;;15.25;6.60;;;;;;;12.54;94.52;100552.97;4988985;28;20040;-82
2022/10/14 05:46:43;;;;;;;10.05;6.55;;;;;;;12.54;94.51;100555.59;5000185;28;20053;-82
2022/10/14 05:49:47;;;;;;;;;;;;;;;12.50;94.57;100554.91;5000335;28;20168;-81
2022/10/14 05:52:51;;;;;;;6.82;4.82;;;;;;;12.49;94.79;100544.53;5000001;28;19920;-77
2022/10/14 05:56:06;;;;;;;11.80;6.15;;;;;;;12.36;95.86;100541.78;4989036;28;20057;-81
2022/10/14 05:59:14;;;;;;;7.57;5.47;;;;;;;12.33;96.18;100545.41;5000189;28;20041;-82
2022/10/14 06:02:18;;;;;;;12.55;4.82;;;;;;;12.42;96.15;100551.06;4999873;28;20471;-80
2022/10/14 06:05:21;;;;;;;8.60;3.85;;;;;;;12.60;95.05;100549.94;4988859;28;20119;-81
2022/10/14 06:08:24;;;;;;;9.25;3.75;;;;;;;12.60;94.40;100544.69;4999891;28;20041;-81
2022/10/14 06:11:28;;;;;;;;;;;;;;;12.61;94.48;100542.94;5000412;28;20048;-81
2022/10/14 06:14:32;;;;;;;8.95;3.95;;;;;;;12.60;94.27;100547.31;4999758;28;19968;-83
2022/10/14 06:17:37;;;;;;;9.35;3.65;;;;;;;12.66;94.05;100556.59;4999956;28;20053;-81
2022/10/14 06:20:40;;;;;;;7.45;4.10;;;;;;;12.62;94.13;100550.72;4999679;28;20056;-82
2022/10/14 06:23:44;;;;;;;5.32;3.55;;;;;;;12.59;94.61;100555.31;5012100;28;20060;-79
2022/10/14 06:26:47;;;;;;;5.55;3.00;;;;;;;12.70;94.01;100551.09;5011763;28;20080;-77
2022/10/14 06:29:51;;;;;;;6.18;3.78;;;;;;;12.73;94.03;100550.91;5011725;28;20464;-76
2022/10/14 06:32:54;;;;;;;;;;;;;;;12.70;94.42;100558.09;5012451;28;20060;-76
2022/10/14 06:35:57;;;;;;;9.27;2.97;;;;;;;12.69;94.42;100557.25;5011771;28;19920;-77
2022/10/14 06:39:02;;;;;;;5.15;2.67;;;;;;;12.80;93.91;100554.00;5013663;28;20072;-79
2022/10/14 06:42:07;;;;;;;7.63;2.92;;;;;;;12.86;93.41;100555.38;5015513;28;20200;-75
2022/10/14 06:45:10;;;;;;;7.60;2.72;;;;;;;12.85;93.13;100551.94;5015019;28;20099;-78
2022/10/14 06:48:14;;;;;;;4.13;3.05;;;;;;;12.75;93.74;100548.19;5015204;28;20045;-78
2022/10/14 06:51:17;;;;;;;3.53;2.40;;;;;;;12.74;94.51;100542.09;5002637;28;20128;-78
2022/10/14 06:54:21;;;;;;;6.47;2.83;;;;;;;12.67;95.14;100540.78;5015036;28;20480;-79
2022/10/14 06:57:25;;;;;;;5.18;3.05;;;;;;;12.73;95.12;100527.31;5015069;28;20415;-78
2022/10/14 07:00:28;;;;;;;;;;;;;;;12.87;94.64;100523.81;5015701;28;20084;-77
2022/10/14 07:03:38;;;;;;;3.08;2.10;;;;;;;13.02;94.20;100522.88;5014824;28;19928;-79
2022/10/14 07:06:41;;;;;;;3.33;2.20;;;;;;;12.99;94.12;100519.59;5015098;28;20573;-78
2022/10/14 07:09:45;;;;;;;4.70;2.25;;;;;;;13.02;94.13;100524.66;5015098;28;20565;-78
2022/10/14 07:12:51;;;;;;;3.13;2.30;;;;;;;13.06;93.66;100515.66;5015058;28;20096;-80
2022/10/14 07:15:55;;;;;;;6.35;2.45;;;;;;;12.98;94.26;100531.03;5013921;28;20068;-78
2022/10/14 07:19:00;;;;;;;6.03;2.55;;;;;;;12.82;95.54;100517.16;4990805;28;20454;-77
2022/10/14 07:27:17;;;;;;;2.63;1.58;;;;;;;12.85;96.32;100522.22;5032698;28;20522;-82
2022/10/14 07:30:20;;;;;;;7.22;1.27;;;;;;;12.94;96.06;100526.91;5022083;28;20092;-77
2022/10/14 07:33:24;;;;;;;3.28;1.70;;;;;;;12.97;95.62;100526.72;5034327;28;20049;-78
2022/10/14 07:36:27;;;;;;;3.05;1.77;;;;;;;13.04;95.69;100525.38;5033840;28;20128;-76
2022/10/14 07:39:30;;;;;;;3.25;1.20;;;;;;;13.13;95.22;100522.19;5033867;28;20045;-76
2022/10/14 07:42:35;;;;;;;3.10;1.45;;;;;;;13.13;95.08;100526.59;5033779;28;20048;-76
2022/10/14 07:45:39;;;;;;;2.50;1.90;;;;;;;13.09;95.59;100525.13;5033263;28;20087;-75
2022/10/14 07:48:45;;;;;;;5.85;3.75;;;;;;;12.99;96.42;100522.22;5033926;28;20131;-75
2022/10/14 07:51:48;;;;;;;3.15;1.65;;;;;;;13.01;97.03;100520.34;5033256;28;20084;-76
2022/10/14 07:54:51;;;;;;;;;;;;;;;13.17;96.38;100518.44;5034297;28;20045;-76
2022/10/14 07:57:54;;;;;;;4.30;1.63;;;;;;;13.25;95.83;100518.81;5033688;28;19920;-77
2022/10/14 08:00:58;;;;;;;4.35;1.75;;;;;;;13.33;95.54;100520.94;5033311;28;20641;-83
2022/10/14 08:04:01;;;;;;;;;;;;;;;13.39;95.50;100525.81;5034225;28;20048;-79
2022/10/14 08:07:05;;;;;;;3.38;2.10;;;;;;;13.26;97.13;100525.75;5033265;28;20437;-79
2022/10/14 08:10:09;;;;;;;4.68;2.55;;;;;;;13.35;97.22;100515.63;5033378;28;20486;-79
2022/10/14 08:13:12;;;;;;;6.13;2.50;;;;;;;13.13;98.52;100519.56;5033468;28;20533;-79
2022/10/14 08:16:17;;;;;;;4.70;2.13;;;;;;;13.13;98.98;100519.56;5033089;28;20446;-79
2022/10/14 08:19:21;;;;;;;7.85;2.38;;;;;;;13.06;100.00;100505.16;5033266;28;20127;-79
2022/10/14 08:22:24;;;;;;;4.18;2.20;;;;;;;13.12;100.00;100511.81;5032974;28;20099;-78
2022/10/14 08:25:37;;;;;;;5.10;2.88;;;;;;;13.12;100.00;100507.38;5033043;28;20048;-89
2022/10/14 08:28:40;;;;;;;5.03;2.53;;;;;;;13.26;100.00;100512.63;5032977;28;20119;-78
2022/10/14 08:31:44;;;;;;;4.80;3.13;;;;;;;13.26;100.00;100509.16;5033052;28;20048;-83
2022/10/14 08:34:48;;;;;;;8.45;3.40;;;;;;;13.36;100.00;100507.63;5032922;28;20051;-79
2022/10/14 08:37:59;;;;;;;4.97;3.33;;;;;;;13.25;100.00;100515.38;5032718;28;20640;-81
2022/10/14 08:41:11;;;;;;;6.22;2.85;;;;;;;13.31;100.00;100506.25;5032907;28;20044;-80
2022/10/14 08:44:40;;;;;;;13.23;8.15;;;;;;;13.31;100.00;100499.22;5009483;28;20136;-82
2022/10/14 08:47:45;;;;;;;5.50;3.30;;;;;;;13.48;100.00;100503.38;5032663;28;20107;-79
2022/10/14 08:51:04;;;;;;;5.55;3.30;;;;;;;13.57;100.00;100505.41;5020258;28;20195;-80
2022/10/14 08:54:14;;;;;;;5.75;2.80;;;;;;;13.77;100.00;100498.00;5032709;28;20052;-77
2022/10/14 08:57:23;;;;;;;5.28;3.33;;;;;;;13.84;100.00;100491.41;5032839;28;20130;-81
2022/10/14 09:00:29;;;;;;;7.68;3.53;;;;;;;13.94;100.00;100495.97;5032501;28;20044;-80
2022/10/14 09:03:33;;;;;;;8.88;3.40;;;;;;;13.89;100.00;100487.53;5032786;28;20049;-81
2022/10/14 09:06:40;;;;;;;6.57;3.47;;;;;;;14.04;99.97;100485.66;5032531;28;20172;-81
2022/10/14 09:09:50;;;;;;;7.03;3.60;;;;;;;14.12;99.46;100477.25;5032566;28;20505;-81
2022/10/14 09:12:58;;;;;;;8.35;3.88;;;;;;;14.19;99.67;100468.00;5032245;28;20131;-81
2022/10/14 09:16:24;;;;;;;7.22;3.63;;;;;;;14.27;99.62;100464.84;5011403;28;20100;-81
2022/10/14 09:19:40;;;;;;;5.15;3.95;;;;;;;14.32;99.67;100458.31;5012579;28;20104;-81
2022/10/14 09:22:45;;;;;;;10.00;4.22;;;;;;;14.35;100.00;100452.84;5012950;28;20076;-75
2022/10/14 09:26:02;;;;;;;8.80;4.30;;;;;;;14.41;100.00;100446.31;5012444;28;20096;-74
2022/10/14 09:29:19;;;;;;;13.63;5.03;;;;;;;14.49;100.00;100448.44;5012385;28;20053;-75
2022/10/14 09:32:26;;;;;;;11.32;4.45;;;;;;;14.51;100.00;100436.03;5012315;28;20108;-84
2022/10/14 09:35:37;;;;;;;8.45;4.65;;;;;;;14.47;100.00;100424.84;5011394;28;20121;-83
2022/10/14 09:39:17;;;;;;;5.38;4.78;;;;;;;14.43;100.00;100436.53;5012326;28;20408;-84
2022/10/14 09:42:26;;;;;;;11.13;5.07;;;;;;;14.33;100.00;100438.97;5012165;28;20556;-84
2022/10/14 09:45:56;;;;;;;9.60;5.35;;;;;;;14.21;100.00;100431.09;5011874;28;20081;-84
2022/10/14 09:49:01;;;;;;;9.60;5.07;;;;;;;14.28;100.00;100434.97;5012015;28;20471;-84
2022/10/14 09:52:07;;;;;;;6.95;4.82;;;;;;;14.34;100.00;100429.28;5012124;28;20176;-85
2022/10/14 09:55:20;;;;;;;8.18;5.30;;;;;;;14.37;100.00;100422.03;5012019;28;20057;-84
2022/10/14 09:58:35;;;;;;;10.50;5.15;;;;;;;14.39;100.00;100417.50;5011806;28;20259;-85
2022/10/14 10:01:47;;;;;;;7.03;5.50;;;;;;;14.42;100.00;100413.78;5011491;28;20052;-85
2022/10/14 10:04:57;;;;;;;11.20;6.70;;;;;;;14.50;100.00;100419.38;5012079;28;20045;-85
2022/10/14 10:08:12;;;;;;;13.52;6.18;;;;;;;14.54;100.00;100412.13;5012087;28;20119;-85
2022/10/14 10:11:32;;;;;;;9.02;5.47;;;;;;;14.52;100.00;100417.50;5011679;28;20049;-85
2022/10/14 10:14:35;;;;;;;12.40;6.85;;;;;;;14.60;99.83;100419.59;5016041;28;20096;-85
2022/10/14 10:17:40;;;;;;;10.90;6.90;;;;;;;14.57;100.00;100411.91;5035437;28;20048;-84
2022/10/14 10:21:01;;;;;;;14.20;5.97;;;;;;;14.55;97.35;100419.06;5035571;28;20076;-82
2022/10/14 10:24:29;;;;;;;12.38;6.80;;;;;;;14.62;99.33;100415.91;5035651;28;20048;-86
2022/10/14 10:27:36;;;;;;;9.82;6.50;;;;;;;14.54;100.00;100410.34;5023265;28;20529;-85
2022/10/14 10:31:15;;;;;;;13.25;5.78;;;;;;;14.47;100.00;100398.53;5035249;28;20048;-85
2022/10/14 10:34:26;;;;;;;12.88;7.70;;;;;;;14.46;100.00;100407.38;5035767;28;20129;-86
2022/10/14 10:37:36;;;;;;;13.18;6.30;;;;;;;14.48;100.00;100404.63;5035632;28;20043;-84
2022/10/14 10:41:05;;;;;;;10.75;6.47;;;;;;;14.53;100.00;100392.88;5035453;28;20045;-84
2022/10/14 10:44:24;;;;;;;11.32;8.90;;;;;;;14.58;98.33;100389.91;5035501;28;20064;-83
2022/10/14 10:47:36;;;;;;;15.77;9.18;;;;;;;14.59;100.00;100381.91;5035206;28;20141;-82
2022/10/14 10:51:03;;;;;;;7.57;4.97;;;;;;;14.47;100.00;100372.22;5035031;28;20103;-82
2022/10/14 10:54:24;;;;;;;12.70;5.70;;;;;;;14.52;100.00;100371.94;5035158;28;20087;-74
2022/10/14 10:57:51;;;;;;;10.52;7.40;;;;;;;14.49;99.83;100370.34;5035046;28;20068;-78
2022/10/14 11:01:24;;;;;;;9.63;5.57;;;;;;;14.55;100.00;100375.19;5034915;28;20094;-78
2022/10/14 11:04:32;;;;;;;9.27;5.10;;;;;;;14.64;100.00;100363.16;5035041;28;20431;-87
2022/10/14 11:12:12;;;;;;;10.73;4.40;;;;;;;14.55;99.81;100358.53;5034599;28;20111;-85
2022/10/14 11:15:39;;;;;;;6.85;4.00;;;;;;;14.58;98.24;100348.66;5034227;28;20549;-86
2022/10/14 11:19:17;;;;;;;8.45;4.45;;;;;;;14.62;100.00;100344.84;5034753;28;20164;-87
2022/10/14 11:22:39;;;;;;;5.90;4.00;;;;;;;14.62;99.68;100344.84;5034468;28;20060;-84
2022/10/14 11:25:57;;;;;;;;;;;;;;;14.64;100.00;100340.34;5021294;28;20423;-84
2022/10/14 11:29:15;;;;;;;6.75;3.85;;;;;;;14.60;100.00;100333.59;5021939;28;19920;-85
2022/10/14 11:32:43;;;;;;;6.78;4.20;;;;;;;14.52;100.00;100332.50;5034305;28;20045;-84
2022/10/14 11:36:04;;;;;;;9.27;5.13;;;;;;;14.50;100.00;100329.91;5034299;28;20466;-77
2022/10/14 11:39:41;;;;;;;6.75;4.72;;;;;;;14.51;100.00;100325.53;5034269;28;20098;-83
2022/10/14 11:43:18;;;;;;;6.13;4.25;;;;;;;14.59;100.00;100326.66;5034332;28;20052;-80
2022/10/14 11:46:26;;;;;;;9.98;4.00;;;;;;;14.59;100.00;100310.88;5034115;28;20133;-82
2022/10/14 11:49:41;;;;;;;10.20;4.25;;;;;;;14.46;99.28;100312.69;5033642;28;20621;-78
2022/10/14 11:53:03;;;;;;;9.68;3.70;;;;;;;14.43;99.31;100312.91;5034108;28;20092;-86
2022/10/14 11:56:19;;;;;;;6.22;3.30;;;;;;;14.43;100.00;100319.00;5033755;28;20048;-84
2022/10/14 12:03:52;;;;;;;16.25;11.02;;;;;;;14.54;100.00;100307.72;5028364;28;20570;-82
2022/10/14 12:07:07;;;;;;;11.40;5.85;;;;;;;14.57;100.00;100307.50;5030945;28;20518;-81
2022/10/14 12:10:26;;;;;;;7.18;3.90;;;;;;;14.54;100.00;100299.81;5029064;28;20060;-80
2022/10/14 12:13:41;;;;;;;13.20;6.20;;;;;;;14.54;100.00;100296.38;5006565;28;20477;-79
2022/10/14 12:16:47;;;;;;;9.73;5.45;;;;;;;14.54;100.00;100299.81;5033170;28;20111;-83
2022/10/14 12:19:51;;;;;;;9.70;5.03;;;;;;;14.57;100.00;100275.94;5033458;28;20103;-80
2022/10/14 12:22:57;;;;;;;9.63;4.38;;;;;;;14.55;100.00;100275.22;5033343;28;20079;-80
2022/10/14 12:26:41;;;;;;;7.70;4.18;;;;;;;14.51;100.00;100271.09;5033272;28;20044;-80
2022/10/14 12:29:48;;;;;;;6.93;3.90;;;;;;;14.52;100.00;100277.25;5033337;28;20122;-84
2022/10/14 12:33:11;;;;;;;9.38;5.28;;;;;;;14.64;100.00;100279.81;5033146;28;20519;-79
2022/10/14 12:36:31;;;;;;;6.28;3.47;;;;;;;14.63;100.00;100270.22;5033075;28;20048;-83
2022/10/14 12:39:42;;;;;;;5.07;2.60;;;;;;;14.56;99.35;100273.41;5028308;28;20060;-82
2022/10/14 12:43:03;;;;;;;8.48;3.10;;;;;;;14.63;99.95;100270.22;5032523;28;20486;-81
2022/10/14 12:46:14;;;;;;;9.70;3.38;;;;;;;14.64;100.00;100268.44;5032234;28;20076;-85
2022/10/14 12:49:45;;;;;;;5.30;2.40;;;;;;;14.57;100.00;100261.94;5035574;28;20102;-83
2022/10/14 12:53:07;;;;;;;4.75;2.63;;;;;;;14.59;100.00;100266.13;5052580;28;20402;-87
2022/10/14 12:56:31;;;;;;;6.53;2.80;;;;;;;14.59;100.00;100260.88;5029553;28;20094;-84
2022/10/14 12:59:41;;;;;;;6.68;3.08;;;;;;;14.61;100.00;100264.25;5039715;28;20052;-87
2022/10/14 13:02:47;;;;;;;4.72;2.67;;;;;;;14.53;100.00;100257.88;5039828;28;20071;-86
2022/10/14 13:06:13;;;;;;;6.32;4.43;;;;;;;14.56;100.00;100255.00;5032782;28;20191;-85
2022/10/14 13:09:32;;;;;;;9.63;4.10;;;;;;;14.52;100.00;100258.81;5032129;28;20049;-86
2022/10/14 13:12:35;;;;;;;8.10;2.70;;;;;;;14.49;100.00;100254.59;5032023;28;20187;-82
2022/10/14 13:24:25;;;;;;;6.68;5.28;;;;;;;14.67;100.00;100220.84;5031611;28;20076;-83
2022/10/14 13:27:53;;;;;;;9.88;5.13;;;;;;;14.77;100.00;100211.31;5031774;28;20048;-87
2022/10/14 13:31:06;;;;;;;22.15;10.25;;;;;;;14.85;100.00;100200.22;5031550;28;20040;-83
2022/10/14 13:34:36;;;;;;;12.20;5.85;;;;;;;14.93;100.00;100204.88;5031481;28;20076;-88
2022/10/14 13:38:04;;;;;;;8.57;4.65;;;;;;;14.98;100.00;100194.84;5031939;28;20064;-88
2022/10/14 13:41:23;;;;;;;8.77;3.58;;;;;;;14.94;100.00;100191.63;5032145;28;20040;-85
2022/10/14 13:46:20;;;;;;;;;;;;;;;;;;;;;
2022/10/14 13:56:25;;;;;;;;;;;;;;;;;;;;;
2022/10/14 14:10:06;;;;;;;5.68;3.72;;;;;;;14.78;100.00;100185.84;4874606;29;20059;-83
2022/10/14 14:17:00;;;;;;;18.90;12.13;;;;;;;14.94;100.00;100167.09;4925622;26;20051;-71
2022/10/14 14:20:10;;;;;;;16.42;9.70;;;;;;;15.03;100.00;100167.22;4972918;28;20102;-71
2022/10/14 14:23:13;;;;;;;12.55;7.70;;;;;;;15.10;100.00;100155.25;4972963;28;20543;-71
2022/10/14 14:26:18;;;;;;;7.95;4.57;;;;;;;15.05;100.00;100157.41;4972872;28;20126;-71
2022/10/14 14:29:25;;;;;;;5.50;2.67;;;;;;;14.95;100.00;100159.06;4973010;28;20049;-71
2022/10/14 14:32:30;;;;;;;3.28;1.52;;;;;;;14.91;100.00;100152.38;4972736;28;20120;-71
2022/10/14 14:35:34;;;;;;;5.70;1.45;;;;;;;14.85;100.00;100152.81;4972217;28;20602;-71
2022/10/14 14:38:43;;;;;;;5.30;1.08;;;;;;;14.80;100.00;100152.31;4952618;28;20190;-71
2022/10/14 14:41:51;;;;;;;5.28;0.90;;;;;;;14.74;100.00;100153.66;4951127;28;20118;-71
2022/10/14 14:45:00;;;;;;;3.28;1.38;;;;;;;14.71;100.00;100155.66;4953969;28;20106;-71
2022/10/14 14:48:05;;;;;;;4.03;1.30;;;;;;;14.69;100.00;100154.94;4953148;29;20054;-71
2022/10/14 14:51:12;;;;;;;4.72;1.85;;;;;;;14.68;100.00;100150.63;4952586;28;20078;-71
2022/10/14 14:54:21;;;;;;;2.65;1.23;;;;;;;14.63;100.00;100162.34;4956911;28;20397;-71
2022/10/14 14:57:25;;;;;;;3.88;1.13;;;;;;;14.61;100.00;100164.25;4969296;28;20050;-71
2022/10/14 15:00:29;;;;;;;2.45;0.95;;;;;;;14.63;100.00;100157.06;4974621;28;20073;-71
2022/10/14 15:03:50;;;;;;;3.13;1.05;;;;;;;14.64;100.00;100155.28;4975974;28;20104;-71
2022/10/14 15:07:00;;;;;;;2.50;0.93;;;;;;;14.67;100.00;100146.31;4976070;28;20053;-71
2022/10/14 15:10:06;;;;;;;4.63;1.60;;;;;;;14.65;100.00;100149.06;4975942;28;20050;-71
2022/10/14 15:13:28;;;;;;;3.75;1.10;;;;;;;14.70;100.00;100153.97;4975378;28;20041;-71
2022/10/14 15:16:32;;;;;;;4.97;2.13;;;;;;;14.72;100.00;100144.19;4975565;28;20097;-71
2022/10/14 15:19:36;;;;;;;2.95;1.15;;;;;;;14.64;100.00;100139.50;4964843;28;20492;-71
2022/10/14 15:22:42;;;;;;;8.20;1.00;;;;;;;14.61;100.00;100132.69;4956815;28;20175;-71
2022/10/14 15:25:56;;;;;;;5.20;1.88;;;;;;;14.69;100.00;100132.09;4963645;28;20131;-71
2022/10/14 15:29:17;;;;;;;6.15;1.77;;;;;;;14.68;100.00;100137.47;4966266;28;20188;-71
2022/10/14 15:32:22;;;;;;;6.57;1.70;;;;;;;14.63;100.00;100135.19;4970169;28;20041;-71
2022/10/14 15:35:28;;;;;;;4.93;1.73;;;;;;;14.68;100.00;100134.81;4936316;29;20422;-71
2022/10/14 15:38:34;;;;;;;4.55;1.20;;;;;;;14.67;100.00;100133.16;4955081;28;20094;-71